sensor_id;sensor_type;location;lat;lon;timestamp;temperature;humidity
64961;SHT31;51487;52.266;10.542;2022-12-01T00:01:09;4.18;91.01
64961;SHT31;51487;52.266;10.542;2022-12-01T00:03:35;4.16;90.96
64961;SHT31;51487;52.266;10.542;2022-12-01T00:06:13;4.18;91.11
64961;SHT31;51487;52.266;10.542;2022-12-01T00:08:40;4.27;90.52
64961;SHT31;51487;52.266;10.542;2022-12-01T00:11:26;4.09;91.50
64961;SHT31;51487;52.266;10.542;2022-12-01T00:13:52;4.20;90.99
64961;SHT31;51487;52.266;10.542;2022-12-01T00:16:17;4.30;91.11
64961;SHT31;51487;52.266;10.542;2022-12-01T00:18:43;3.99;91.40
64961;SHT31;51487;52.266;10.542;2022-12-01T00:21:14;4.03;91.63
64961;SHT31;51487;52.266;10.542;2022-12-01T00:23:48;4.09;91.28
64961;SHT31;51487;52.266;10.542;2022-12-01T00:26:16;4.21;90.72
64961;SHT31;51487;52.266;10.542;2022-12-01T00:28:42;4.23;91.04
64961;SHT31;51487;52.266;10.542;2022-12-01T00:31:10;4.25;90.59
64961;SHT31;51487;52.266;10.542;2022-12-01T00:33:36;4.14;91.26
64961;SHT31;51487;52.266;10.542;2022-12-01T00:36:03;4.13;91.33
64961;SHT31;51487;52.266;10.542;2022-12-01T00:38:29;4.18;91.01
64961;SHT31;51487;52.266;10.542;2022-12-01T00:40:54;4.20;91.02
64961;SHT31;51487;52.266;10.542;2022-12-01T00:43:20;4.17;90.90
64961;SHT31;51487;52.266;10.542;2022-12-01T00:45:46;4.27;90.11
64961;SHT31;51487;52.266;10.542;2022-12-01T00:48:11;4.16;90.69
64961;SHT31;51487;52.266;10.542;2022-12-01T00:50:37;4.16;89.93
64961;SHT31;51487;52.266;10.542;2022-12-01T00:53:02;4.00;90.64
64961;SHT31;51487;52.266;10.542;2022-12-01T00:55:27;4.04;90.00
64961;SHT31;51487;52.266;10.542;2022-12-01T00:57:53;3.85;90.82
64961;SHT31;51487;52.266;10.542;2022-12-01T01:00:19;3.93;90.10
64961;SHT31;51487;52.266;10.542;2022-12-01T01:02:44;3.79;90.72
64961;SHT31;51487;52.266;10.542;2022-12-01T01:05:10;3.79;90.96
64961;SHT31;51487;52.266;10.542;2022-12-01T01:07:35;3.81;90.75
64961;SHT31;51487;52.266;10.542;2022-12-01T01:10:01;3.76;90.98
64961;SHT31;51487;52.266;10.542;2022-12-01T01:12:27;3.69;91.01
64961;SHT31;51487;52.266;10.542;2022-12-01T01:14:53;3.71;90.66
64961;SHT31;51487;52.266;10.542;2022-12-01T01:17:18;3.65;90.83
64961;SHT31;51487;52.266;10.542;2022-12-01T01:19:44;3.61;91.36
64961;SHT31;51487;52.266;10.542;2022-12-01T01:22:10;3.59;91.22
64961;SHT31;51487;52.266;10.542;2022-12-01T01:24:36;3.46;91.96
64961;SHT31;51487;52.266;10.542;2022-12-01T01:27:02;3.52;91.88
64961;SHT31;51487;52.266;10.542;2022-12-01T01:29:30;3.59;91.73
64961;SHT31;51487;52.266;10.542;2022-12-01T01:31:56;3.68;91.09
64961;SHT31;51487;52.266;10.542;2022-12-01T01:34:21;3.75;90.63
64961;SHT31;51487;52.266;10.542;2022-12-01T01:36:47;3.81;90.03
64961;SHT31;51487;52.266;10.542;2022-12-01T01:39:13;3.58;91.05
64961;SHT31;51487;52.266;10.542;2022-12-01T01:41:38;3.42;91.81
64961;SHT31;51487;52.266;10.542;2022-12-01T01:47:12;3.54;90.38
64961;SHT31;51487;52.266;10.542;2022-12-01T01:49:38;3.41;91.12
64961;SHT31;51487;52.266;10.542;2022-12-01T01:52:05;3.35;91.21
64961;SHT31;51487;52.266;10.542;2022-12-01T01:54:36;3.48;90.97
64961;SHT31;51487;52.266;10.542;2022-12-01T01:57:06;3.59;90.59
64961;SHT31;51487;52.266;10.542;2022-12-01T01:59:40;3.55;90.46
64961;SHT31;51487;52.266;10.542;2022-12-01T02:02:09;3.48;90.51
64961;SHT31;51487;52.266;10.542;2022-12-01T02:04:42;3.28;91.68
64961;SHT31;51487;52.266;10.542;2022-12-01T02:07:12;3.30;92.11
64961;SHT31;51487;52.266;10.542;2022-12-01T02:09:39;3.32;91.73
64961;SHT31;51487;52.266;10.542;2022-12-01T02:19:21;3.44;91.18
64961;SHT31;51487;52.266;10.542;2022-12-01T02:25:45;3.13;92.72
64961;SHT31;51487;52.266;10.542;2022-12-01T02:31:10;3.41;91.55
64961;SHT31;51487;52.266;10.542;2022-12-01T02:34:38;3.30;91.79
64961;SHT31;51487;52.266;10.542;2022-12-01T02:37:48;3.27;91.72
64961;SHT31;51487;52.266;10.542;2022-12-01T02:40:39;3.18;91.89
64961;SHT31;51487;52.266;10.542;2022-12-01T02:43:17;3.20;91.99
64961;SHT31;51487;52.266;10.542;2022-12-01T02:46:07;3.08;92.31
64961;SHT31;51487;52.266;10.542;2022-12-01T02:48:38;3.14;92.47
64961;SHT31;51487;52.266;10.542;2022-12-01T02:51:18;3.20;92.23
64961;SHT31;51487;52.266;10.542;2022-12-01T02:53:45;3.28;91.72
64961;SHT31;51487;52.266;10.542;2022-12-01T02:56:12;3.13;91.91
64961;SHT31;51487;52.266;10.542;2022-12-01T02:58:42;3.08;92.25
64961;SHT31;51487;52.266;10.542;2022-12-01T03:13:04;3.14;91.80
64961;SHT31;51487;52.266;10.542;2022-12-01T03:15:51;2.99;92.67
64961;SHT31;51487;52.266;10.542;2022-12-01T03:18:42;3.17;92.08
64961;SHT31;51487;52.266;10.542;2022-12-01T03:21:32;3.20;91.81
64961;SHT31;51487;52.266;10.542;2022-12-01T03:24:12;3.08;92.30
64961;SHT31;51487;52.266;10.542;2022-12-01T03:26:44;3.03;92.50
64961;SHT31;51487;52.266;10.542;2022-12-01T03:29:19;3.03;91.82
64961;SHT31;51487;52.266;10.542;2022-12-01T03:31:56;2.94;92.32
64961;SHT31;51487;52.266;10.542;2022-12-01T03:34:39;3.15;91.35
64961;SHT31;51487;52.266;10.542;2022-12-01T03:37:14;3.11;91.04
64961;SHT31;51487;52.266;10.542;2022-12-01T03:39:46;3.03;91.20
64961;SHT31;51487;52.266;10.542;2022-12-01T03:42:26;2.97;91.49
64961;SHT31;51487;52.266;10.542;2022-12-01T03:44:59;2.96;91.46
64961;SHT31;51487;52.266;10.542;2022-12-01T03:47:30;3.00;91.85
64961;SHT31;51487;52.266;10.542;2022-12-01T03:49:58;3.11;91.34
64961;SHT31;51487;52.266;10.542;2022-12-01T03:52:57;3.10;91.37
64961;SHT31;51487;52.266;10.542;2022-12-01T03:55:30;3.20;91.48
64961;SHT31;51487;52.266;10.542;2022-12-01T03:58:20;3.20;90.78
64961;SHT31;51487;52.266;10.542;2022-12-01T04:00:47;3.15;90.69
64961;SHT31;51487;52.266;10.542;2022-12-01T04:03:20;3.11;91.30
64961;SHT31;51487;52.266;10.542;2022-12-01T04:05:47;2.92;91.95
64961;SHT31;51487;52.266;10.542;2022-12-01T04:08:12;2.96;92.18
64961;SHT31;51487;52.266;10.542;2022-12-01T04:10:38;2.99;91.81
64961;SHT31;51487;52.266;10.542;2022-12-01T04:13:03;3.08;91.64
64961;SHT31;51487;52.266;10.542;2022-12-01T04:15:29;3.18;91.26
64961;SHT31;51487;52.266;10.542;2022-12-01T04:17:54;3.35;90.25
64961;SHT31;51487;52.266;10.542;2022-12-01T04:20:21;3.17;91.24
64961;SHT31;51487;52.266;10.542;2022-12-01T04:22:47;3.23;91.30
64961;SHT31;51487;52.266;10.542;2022-12-01T04:25:13;3.30;90.82
64961;SHT31;51487;52.266;10.542;2022-12-01T04:27:38;3.28;90.38
64961;SHT31;51487;52.266;10.542;2022-12-01T04:30:06;3.11;90.60
64961;SHT31;51487;52.266;10.542;2022-12-01T04:32:38;3.07;91.10
64961;SHT31;51487;52.266;10.542;2022-12-01T04:35:05;3.08;91.25
64961;SHT31;51487;52.266;10.542;2022-12-01T04:37:30;2.99;91.63
64961;SHT31;51487;52.266;10.542;2022-12-01T04:39:56;2.94;91.34
64961;SHT31;51487;52.266;10.542;2022-12-01T04:42:21;2.87;91.75
64961;SHT31;51487;52.266;10.542;2022-12-01T04:44:47;2.92;92.02
64961;SHT31;51487;52.266;10.542;2022-12-01T04:47:12;2.82;92.15
64961;SHT31;51487;52.266;10.542;2022-12-01T04:49:38;2.87;92.27
64961;SHT31;51487;52.266;10.542;2022-12-01T04:52:03;2.89;91.93
64961;SHT31;51487;52.266;10.542;2022-12-01T04:54:29;2.87;91.81
64961;SHT31;51487;52.266;10.542;2022-12-01T04:56:54;2.92;91.64
64961;SHT31;51487;52.266;10.542;2022-12-01T04:59:20;2.97;91.04
64961;SHT31;51487;52.266;10.542;2022-12-01T05:01:46;2.84;91.69
64961;SHT31;51487;52.266;10.542;2022-12-01T05:04:13;2.76;91.93
64961;SHT31;51487;52.266;10.542;2022-12-01T05:06:39;2.69;92.12
64961;SHT31;51487;52.266;10.542;2022-12-01T05:09:05;2.64;92.69
64961;SHT31;51487;52.266;10.542;2022-12-01T05:11:32;2.82;92.24
64961;SHT31;51487;52.266;10.542;2022-12-01T05:13:58;2.89;91.82
64961;SHT31;51487;52.266;10.542;2022-12-01T05:16:30;2.90;91.99
64961;SHT31;51487;52.266;10.542;2022-12-01T05:18:59;2.71;93.01
64961;SHT31;51487;52.266;10.542;2022-12-01T05:21:46;2.60;92.93
64961;SHT31;51487;52.266;10.542;2022-12-01T05:24:13;2.64;93.18
64961;SHT31;51487;52.266;10.542;2022-12-01T05:26:40;2.71;92.72
64961;SHT31;51487;52.266;10.542;2022-12-01T05:29:07;2.55;93.28
64961;SHT31;51487;52.266;10.542;2022-12-01T05:31:33;2.56;93.79
64961;SHT31;51487;52.266;10.542;2022-12-01T05:33:58;2.56;93.31
64961;SHT31;51487;52.266;10.542;2022-12-01T05:36:24;2.62;93.24
64961;SHT31;51487;52.266;10.542;2022-12-01T05:38:49;2.82;92.73
64961;SHT31;51487;52.266;10.542;2022-12-01T05:41:15;2.84;92.36
64961;SHT31;51487;52.266;10.542;2022-12-01T05:43:41;2.84;92.15
64961;SHT31;51487;52.266;10.542;2022-12-01T05:46:06;2.84;91.75
64961;SHT31;51487;52.266;10.542;2022-12-01T05:48:32;2.69;92.34
64961;SHT31;51487;52.266;10.542;2022-12-01T05:50:58;2.69;92.68
64961;SHT31;51487;52.266;10.542;2022-12-01T05:53:23;2.71;92.69
64961;SHT31;51487;52.266;10.542;2022-12-01T05:55:52;2.69;92.66
64961;SHT31;51487;52.266;10.542;2022-12-01T05:58:19;2.60;93.27
64961;SHT31;51487;52.266;10.542;2022-12-01T06:00:45;2.69;93.03
64961;SHT31;51487;52.266;10.542;2022-12-01T06:03:10;2.72;93.13
64961;SHT31;51487;52.266;10.542;2022-12-01T06:05:36;2.76;92.35
64961;SHT31;51487;52.266;10.542;2022-12-01T06:08:01;2.84;92.14
64961;SHT31;51487;52.266;10.542;2022-12-01T06:10:27;2.75;92.46
64961;SHT31;51487;52.266;10.542;2022-12-01T06:12:52;2.72;92.00
64961;SHT31;51487;52.266;10.542;2022-12-01T06:15:18;2.69;92.21
64961;SHT31;51487;52.266;10.542;2022-12-01T06:17:43;2.59;92.73
64961;SHT31;51487;52.266;10.542;2022-12-01T06:20:10;2.60;92.80
64961;SHT31;51487;52.266;10.542;2022-12-01T06:22:35;2.73;92.59
64961;SHT31;51487;52.266;10.542;2022-12-01T06:25:01;2.82;92.20
64961;SHT31;51487;52.266;10.542;2022-12-01T06:27:27;2.63;92.10
64961;SHT31;51487;52.266;10.542;2022-12-01T06:29:53;2.67;92.20
64961;SHT31;51487;52.266;10.542;2022-12-01T06:32:18;2.62;92.60
64961;SHT31;51487;52.266;10.542;2022-12-01T06:34:44;2.48;93.17
64961;SHT31;51487;52.266;10.542;2022-12-01T06:37:10;2.49;93.14
64961;SHT31;51487;52.266;10.542;2022-12-01T06:39:36;2.38;93.64
64961;SHT31;51487;52.266;10.542;2022-12-01T06:42:02;2.55;93.10
64961;SHT31;51487;52.266;10.542;2022-12-01T06:44:27;2.60;92.89
64961;SHT31;51487;52.266;10.542;2022-12-01T06:46:55;2.52;93.03
64961;SHT31;51487;52.266;10.542;2022-12-01T06:49:21;2.34;93.82
64961;SHT31;51487;52.266;10.542;2022-12-01T06:51:46;2.41;93.88
64961;SHT31;51487;52.266;10.542;2022-12-01T06:54:12;2.46;93.69
64961;SHT31;51487;52.266;10.542;2022-12-01T06:56:40;2.39;94.17
64961;SHT31;51487;52.266;10.542;2022-12-01T06:59:07;2.56;93.64
64961;SHT31;51487;52.266;10.542;2022-12-01T07:01:32;2.48;93.62
64961;SHT31;51487;52.266;10.542;2022-12-01T07:03:58;2.43;94.16
64961;SHT31;51487;52.266;10.542;2022-12-01T07:06:23;2.50;93.66
64961;SHT31;51487;52.266;10.542;2022-12-01T07:08:49;2.50;93.66
64961;SHT31;51487;52.266;10.542;2022-12-01T07:11:15;2.73;92.85
64961;SHT31;51487;52.266;10.542;2022-12-01T07:13:42;2.82;92.28
64961;SHT31;51487;52.266;10.542;2022-12-01T07:16:11;2.63;92.70
64961;SHT31;51487;52.266;10.542;2022-12-01T07:18:37;2.66;92.43
64961;SHT31;51487;52.266;10.542;2022-12-01T07:21:10;2.67;92.65
64961;SHT31;51487;52.266;10.542;2022-12-01T07:23:36;2.64;92.86
64961;SHT31;51487;52.266;10.542;2022-12-01T07:26:10;2.82;92.09
64961;SHT31;51487;52.266;10.542;2022-12-01T07:28:36;2.77;92.25
64961;SHT31;51487;52.266;10.542;2022-12-01T07:31:10;2.82;92.04
64961;SHT31;51487;52.266;10.542;2022-12-01T07:33:36;2.67;92.43
64961;SHT31;51487;52.266;10.542;2022-12-01T07:36:03;2.71;92.63
64961;SHT31;51487;52.266;10.542;2022-12-01T07:38:30;2.93;91.77
64961;SHT31;51487;52.266;10.542;2022-12-01T07:41:06;2.80;91.84
64961;SHT31;51487;52.266;10.542;2022-12-01T07:43:32;2.72;92.14
64961;SHT31;51487;52.266;10.542;2022-12-01T07:46:19;2.62;92.35
64961;SHT31;51487;52.266;10.542;2022-12-01T07:48:45;2.82;92.09
64961;SHT31;51487;52.266;10.542;2022-12-01T07:51:13;2.92;91.23
64961;SHT31;51487;52.266;10.542;2022-12-01T07:53:42;2.92;91.02
64961;SHT31;51487;52.266;10.542;2022-12-01T07:56:07;2.86;91.29
64961;SHT31;51487;52.266;10.542;2022-12-01T07:58:33;2.83;91.67
64961;SHT31;51487;52.266;10.542;2022-12-01T08:01:16;2.94;91.63
64961;SHT31;51487;52.266;10.542;2022-12-01T08:03:42;3.03;91.19
64961;SHT31;51487;52.266;10.542;2022-12-01T08:06:09;2.90;91.58
64961;SHT31;51487;52.266;10.542;2022-12-01T08:08:37;2.84;91.81
64961;SHT31;51487;52.266;10.542;2022-12-01T08:11:11;2.92;91.94
64961;SHT31;51487;52.266;10.542;2022-12-01T08:13:38;2.93;91.65
64961;SHT31;51487;52.266;10.542;2022-12-01T08:16:08;2.94;91.02
64961;SHT31;51487;52.266;10.542;2022-12-01T08:18:37;3.20;90.53
64961;SHT31;51487;52.266;10.542;2022-12-01T08:21:04;3.10;90.17
64961;SHT31;51487;52.266;10.542;2022-12-01T08:23:31;3.04;90.48
64961;SHT31;51487;52.266;10.542;2022-12-01T08:26:05;3.20;90.24
64961;SHT31;51487;52.266;10.542;2022-12-01T08:28:34;3.30;89.80
64961;SHT31;51487;52.266;10.542;2022-12-01T08:33:41;3.30;89.45
64961;SHT31;51487;52.266;10.542;2022-12-01T08:36:07;3.21;89.99
64961;SHT31;51487;52.266;10.542;2022-12-01T08:38:33;3.27;90.23
64961;SHT31;51487;52.266;10.542;2022-12-01T08:41:05;3.20;90.16
64961;SHT31;51487;52.266;10.542;2022-12-01T08:43:31;3.30;89.73
64961;SHT31;51487;52.266;10.542;2022-12-01T08:46:00;3.30;89.95
64961;SHT31;51487;52.266;10.542;2022-12-01T08:48:26;3.32;89.77
64961;SHT31;51487;52.266;10.542;2022-12-01T08:51:15;3.32;89.48
64961;SHT31;51487;52.266;10.542;2022-12-01T08:53:45;3.27;89.56
64961;SHT31;51487;52.266;10.542;2022-12-01T08:56:31;3.11;90.97
64961;SHT31;51487;52.266;10.542;2022-12-01T08:58:57;3.04;91.12
64961;SHT31;51487;52.266;10.542;2022-12-01T09:01:23;3.21;90.62
64961;SHT31;51487;52.266;10.542;2022-12-01T09:03:50;3.27;89.86
64961;SHT31;51487;52.266;10.542;2022-12-01T09:06:44;3.25;89.46
64961;SHT31;51487;52.266;10.542;2022-12-01T09:09:13;3.30;89.53
64961;SHT31;51487;52.266;10.542;2022-12-01T09:11:40;3.14;90.20
64961;SHT31;51487;52.266;10.542;2022-12-01T09:14:08;3.21;90.79
64961;SHT31;51487;52.266;10.542;2022-12-01T09:16:33;3.36;89.76
64961;SHT31;51487;52.266;10.542;2022-12-01T09:18:59;3.31;89.49
64961;SHT31;51487;52.266;10.542;2022-12-01T09:21:28;3.32;89.65
64961;SHT31;51487;52.266;10.542;2022-12-01T09:23:58;3.13;90.44
64961;SHT31;51487;52.266;10.542;2022-12-01T09:26:25;3.20;90.37
64961;SHT31;51487;52.266;10.542;2022-12-01T09:29:12;3.31;89.96
64961;SHT31;51487;52.266;10.542;2022-12-01T09:31:39;3.17;90.76
64961;SHT31;51487;52.266;10.542;2022-12-01T09:34:09;3.20;90.24
64961;SHT31;51487;52.266;10.542;2022-12-01T09:36:36;3.28;90.02
64961;SHT31;51487;52.266;10.542;2022-12-01T09:39:05;3.35;89.83
64961;SHT31;51487;52.266;10.542;2022-12-01T09:41:43;3.36;89.90
64961;SHT31;51487;52.266;10.542;2022-12-01T09:47:02;3.36;89.81
64961;SHT31;51487;52.266;10.542;2022-12-01T09:49:57;3.31;89.66
64961;SHT31;51487;52.266;10.542;2022-12-01T09:52:33;3.59;88.77
64961;SHT31;51487;52.266;10.542;2022-12-01T09:55:11;3.61;88.74
64961;SHT31;51487;52.266;10.542;2022-12-01T09:57:37;3.54;89.27
64961;SHT31;51487;52.266;10.542;2022-12-01T10:00:27;3.58;88.55
64961;SHT31;51487;52.266;10.542;2022-12-01T10:03:39;3.45;88.69
64961;SHT31;51487;52.266;10.542;2022-12-01T10:06:16;3.44;89.18
64961;SHT31;51487;52.266;10.542;2022-12-01T10:09:25;3.38;88.80
64961;SHT31;51487;52.266;10.542;2022-12-01T10:12:13;3.38;89.23
64961;SHT31;51487;52.266;10.542;2022-12-01T10:14:40;3.42;88.92
64961;SHT31;51487;52.266;10.542;2022-12-01T10:25:58;3.50;88.76
64961;SHT31;51487;52.266;10.542;2022-12-01T10:31:38;3.54;88.68
64961;SHT31;51487;52.266;10.542;2022-12-01T10:34:15;3.42;89.42
64961;SHT31;51487;52.266;10.542;2022-12-01T10:36:41;3.56;88.96
64961;SHT31;51487;52.266;10.542;2022-12-01T10:39:17;3.71;87.98
64961;SHT31;51487;52.266;10.542;2022-12-01T10:41:46;3.71;87.70
64961;SHT31;51487;52.266;10.542;2022-12-01T10:44:13;3.73;87.56
64961;SHT31;51487;52.266;10.542;2022-12-01T10:46:54;3.66;87.42
64961;SHT31;51487;52.266;10.542;2022-12-01T10:49:35;3.54;88.01
64961;SHT31;51487;52.266;10.542;2022-12-01T10:52:01;3.56;88.33
64961;SHT31;51487;52.266;10.542;2022-12-01T10:54:39;3.36;89.09
64961;SHT31;51487;52.266;10.542;2022-12-01T10:57:14;3.45;88.75
64961;SHT31;51487;52.266;10.542;2022-12-01T10:59:48;3.48;88.42
64961;SHT31;51487;52.266;10.542;2022-12-01T11:02:19;3.52;88.25
64961;SHT31;51487;52.266;10.542;2022-12-01T11:04:54;3.66;87.80
64961;SHT31;51487;52.266;10.542;2022-12-01T11:07:31;3.55;88.13
64961;SHT31;51487;52.266;10.542;2022-12-01T11:12:40;3.55;87.91
64961;SHT31;51487;52.266;10.542;2022-12-01T11:15:07;3.45;88.59
64961;SHT31;51487;52.266;10.542;2022-12-01T11:17:43;3.48;88.73
64961;SHT31;51487;52.266;10.542;2022-12-01T11:20:33;3.68;88.19
64961;SHT31;51487;52.266;10.542;2022-12-01T11:26:14;3.81;87.27
64961;SHT31;51487;52.266;10.542;2022-12-01T11:29:06;3.52;87.94
64961;SHT31;51487;52.266;10.542;2022-12-01T11:31:47;3.61;87.89
64961;SHT31;51487;52.266;10.542;2022-12-01T11:34:29;3.50;88.21
64961;SHT31;51487;52.266;10.542;2022-12-01T11:37:03;3.52;88.42
64961;SHT31;51487;52.266;10.542;2022-12-01T11:39:39;3.41;89.03
64961;SHT31;51487;52.266;10.542;2022-12-01T11:42:27;3.34;89.71
64961;SHT31;51487;52.266;10.542;2022-12-01T11:45:17;3.27;89.50
64961;SHT31;51487;52.266;10.542;2022-12-01T11:48:05;3.51;89.51
64961;SHT31;51487;52.266;10.542;2022-12-01T11:50:41;3.51;89.18
64961;SHT31;51487;52.266;10.542;2022-12-01T11:53:36;3.61;88.79
64961;SHT31;51487;52.266;10.542;2022-12-01T11:58:37;3.58;88.69
64961;SHT31;51487;52.266;10.542;2022-12-01T12:16:25;3.72;88.54
64961;SHT31;51487;52.266;10.542;2022-12-01T12:19:24;3.66;88.14
64961;SHT31;51487;52.266;10.542;2022-12-01T12:22:12;3.83;87.80
64961;SHT31;51487;52.266;10.542;2022-12-01T12:25:04;3.73;88.21
64961;SHT31;51487;52.266;10.542;2022-12-01T12:28:09;3.63;88.82
64961;SHT31;51487;52.266;10.542;2022-12-01T12:39:36;3.54;88.83
64961;SHT31;51487;52.266;10.542;2022-12-01T12:45:43;3.61;88.92
64961;SHT31;51487;52.266;10.542;2022-12-01T12:53:47;3.32;89.65
64961;SHT31;51487;52.266;10.542;2022-12-01T12:56:16;3.41;89.46
64961;SHT31;51487;52.266;10.542;2022-12-01T12:59:11;3.31;89.50
64961;SHT31;51487;52.266;10.542;2022-12-01T13:02:01;3.50;89.64
64961;SHT31;51487;52.266;10.542;2022-12-01T13:04:47;3.45;89.71
64961;SHT31;51487;52.266;10.542;2022-12-01T13:09:49;3.72;88.68
64961;SHT31;51487;52.266;10.542;2022-12-01T13:12:29;3.41;89.46
64961;SHT31;51487;52.266;10.542;2022-12-01T13:17:43;3.46;89.28
64961;SHT31;51487;52.266;10.542;2022-12-01T13:20:14;3.52;89.61
64961;SHT31;51487;52.266;10.542;2022-12-01T13:22:43;3.59;89.22
64961;SHT31;51487;52.266;10.542;2022-12-01T13:25:14;3.69;89.39
64961;SHT31;51487;52.266;10.542;2022-12-01T13:27:42;3.51;89.80
64961;SHT31;51487;52.266;10.542;2022-12-01T13:30:24;3.48;89.90
64961;SHT31;51487;52.266;10.542;2022-12-01T13:33:02;3.59;89.46
64961;SHT31;51487;52.266;10.542;2022-12-01T13:35:35;3.55;89.24
64961;SHT31;51487;52.266;10.542;2022-12-01T13:38:21;3.61;89.30
64961;SHT31;51487;52.266;10.542;2022-12-01T13:41:09;3.63;89.63
64961;SHT31;51487;52.266;10.542;2022-12-01T13:43:36;3.86;88.81
64961;SHT31;51487;52.266;10.542;2022-12-01T13:46:21;3.69;88.65
64961;SHT31;51487;52.266;10.542;2022-12-01T13:51:12;3.63;89.28
64961;SHT31;51487;52.266;10.542;2022-12-01T13:54:58;3.55;89.82
64961;SHT31;51487;52.266;10.542;2022-12-01T13:57:03;3.55;89.96
64961;SHT31;51487;52.266;10.542;2022-12-01T14:02:35;3.50;90.16
64961;SHT31;51487;52.266;10.542;2022-12-01T14:08:14;3.65;89.12
64961;SHT31;51487;52.266;10.542;2022-12-01T14:11:03;3.42;89.94
64961;SHT31;51487;52.266;10.542;2022-12-01T14:13:32;3.55;89.87
64961;SHT31;51487;52.266;10.542;2022-12-01T14:16:02;3.59;89.34
64961;SHT31;51487;52.266;10.542;2022-12-01T14:18:36;3.65;89.14
64961;SHT31;51487;52.266;10.542;2022-12-01T14:21:07;3.65;88.96
64961;SHT31;51487;52.266;10.542;2022-12-01T14:23:57;3.44;89.45
64961;SHT31;51487;52.266;10.542;2022-12-01T14:26:24;3.42;89.80
64961;SHT31;51487;52.266;10.542;2022-12-01T14:34:02;3.61;89.02
64961;SHT31;51487;52.266;10.542;2022-12-01T14:36:45;3.44;89.59
64961;SHT31;51487;52.266;10.542;2022-12-01T14:39:22;3.51;89.52
64961;SHT31;51487;52.266;10.542;2022-12-01T14:42:20;3.55;89.78
64961;SHT31;51487;52.266;10.542;2022-12-01T14:45:10;3.61;89.11
64961;SHT31;51487;52.266;10.542;2022-12-01T14:48:08;3.55;89.51
64961;SHT31;51487;52.266;10.542;2022-12-01T14:50:45;3.36;89.81
64961;SHT31;51487;52.266;10.542;2022-12-01T14:53:26;3.24;90.83
64961;SHT31;51487;52.266;10.542;2022-12-01T14:56:15;3.31;90.47
64961;SHT31;51487;52.266;10.542;2022-12-01T14:59:00;3.34;90.60
64961;SHT31;51487;52.266;10.542;2022-12-01T15:01:37;3.30;90.64
64961;SHT31;51487;52.266;10.542;2022-12-01T15:04:05;3.31;90.53
64961;SHT31;51487;52.266;10.542;2022-12-01T15:06:32;3.25;90.55
64961;SHT31;51487;52.266;10.542;2022-12-01T15:11:37;2.96;92.16
64961;SHT31;51487;52.266;10.542;2022-12-01T15:14:37;3.14;91.65
64961;SHT31;51487;52.266;10.542;2022-12-01T15:17:05;3.21;91.06
64961;SHT31;51487;52.266;10.542;2022-12-01T15:21:58;3.27;91.65
64961;SHT31;51487;52.266;10.542;2022-12-01T15:24:26;3.21;91.79
64961;SHT31;51487;52.266;10.542;2022-12-01T15:26:57;3.07;92.55
64961;SHT31;51487;52.266;10.542;2022-12-01T15:29:29;3.13;92.34
64961;SHT31;51487;52.266;10.542;2022-12-01T15:32:05;3.03;92.68
64961;SHT31;51487;52.266;10.542;2022-12-01T15:34:50;3.04;92.74
64961;SHT31;51487;52.266;10.542;2022-12-01T15:37:26;3.07;92.87
64961;SHT31;51487;52.266;10.542;2022-12-01T15:40:00;3.04;92.78
64961;SHT31;51487;52.266;10.542;2022-12-01T15:42:32;3.13;92.22
64961;SHT31;51487;52.266;10.542;2022-12-01T15:45:20;2.99;92.67
64961;SHT31;51487;52.266;10.542;2022-12-01T15:47:51;3.04;92.74
64961;SHT31;51487;52.266;10.542;2022-12-01T15:50:41;2.99;93.00
64961;SHT31;51487;52.266;10.542;2022-12-01T15:53:28;2.72;93.79
64961;SHT31;51487;52.266;10.542;2022-12-01T15:55:57;2.80;93.56
64961;SHT31;51487;52.266;10.542;2022-12-01T15:58:28;2.84;93.36
64961;SHT31;51487;52.266;10.542;2022-12-01T16:01:18;2.94;92.89
64961;SHT31;51487;52.266;10.542;2022-12-01T16:03:56;2.87;93.19
64961;SHT31;51487;52.266;10.542;2022-12-01T16:06:29;2.96;92.65
64961;SHT31;51487;52.266;10.542;2022-12-01T16:09:25;3.05;92.28
64961;SHT31;51487;52.266;10.542;2022-12-01T16:15:11;2.99;92.23
64961;SHT31;51487;52.266;10.542;2022-12-01T16:17:49;2.97;92.13
64961;SHT31;51487;52.266;10.542;2022-12-01T16:20:31;3.00;92.28
64961;SHT31;51487;52.266;10.542;2022-12-01T16:23:00;2.99;92.16
64961;SHT31;51487;52.266;10.542;2022-12-01T16:25:35;3.05;91.67
64961;SHT31;51487;52.266;10.542;2022-12-01T16:28:04;2.99;91.65
64961;SHT31;51487;52.266;10.542;2022-12-01T16:30:38;3.04;91.88
64961;SHT31;51487;52.266;10.542;2022-12-01T16:33:24;2.93;92.36
64961;SHT31;51487;52.266;10.542;2022-12-01T16:35:51;3.05;91.90
64961;SHT31;51487;52.266;10.542;2022-12-01T16:38:25;3.00;91.75
64961;SHT31;51487;52.266;10.542;2022-12-01T16:40:59;3.00;91.96
64961;SHT31;51487;52.266;10.542;2022-12-01T16:43:27;2.96;92.25
64961;SHT31;51487;52.266;10.542;2022-12-01T16:45:59;3.00;92.02
64961;SHT31;51487;52.266;10.542;2022-12-01T16:48:25;3.18;91.33
64961;SHT31;51487;52.266;10.542;2022-12-01T16:50:52;3.05;91.92
64961;SHT31;51487;52.266;10.542;2022-12-01T16:53:18;3.23;90.81
64961;SHT31;51487;52.266;10.542;2022-12-01T16:55:52;3.20;90.92
64961;SHT31;51487;52.266;10.542;2022-12-01T16:58:18;3.13;91.34
64961;SHT31;51487;52.266;10.542;2022-12-01T17:00:44;3.01;91.77
64961;SHT31;51487;52.266;10.542;2022-12-01T17:03:16;3.07;91.62
64961;SHT31;51487;52.266;10.542;2022-12-01T17:05:42;3.07;91.57
64961;SHT31;51487;52.266;10.542;2022-12-01T17:08:07;3.03;91.52
64961;SHT31;51487;52.266;10.542;2022-12-01T17:10:33;3.01;91.69
64961;SHT31;51487;52.266;10.542;2022-12-01T17:12:59;2.97;91.95
64961;SHT31;51487;52.266;10.542;2022-12-01T17:15:24;3.01;91.91
64961;SHT31;51487;52.266;10.542;2022-12-01T17:17:50;3.11;91.58
64961;SHT31;51487;52.266;10.542;2022-12-01T17:20:16;3.04;92.05
64961;SHT31;51487;52.266;10.542;2022-12-01T17:22:41;2.99;92.37
64961;SHT31;51487;52.266;10.542;2022-12-01T17:25:08;2.97;92.53
64961;SHT31;51487;52.266;10.542;2022-12-01T17:27:37;3.14;91.85
64961;SHT31;51487;52.266;10.542;2022-12-01T17:30:05;3.14;90.96
64961;SHT31;51487;52.266;10.542;2022-12-01T17:32:31;3.08;91.83
64961;SHT31;51487;52.266;10.542;2022-12-01T17:34:57;3.13;91.62
64961;SHT31;51487;52.266;10.542;2022-12-01T17:37:22;3.07;91.70
64961;SHT31;51487;52.266;10.542;2022-12-01T17:39:49;3.18;91.45
64961;SHT31;51487;52.266;10.542;2022-12-01T17:42:14;3.05;91.56
64961;SHT31;51487;52.266;10.542;2022-12-01T17:44:40;2.99;92.02
64961;SHT31;51487;52.266;10.542;2022-12-01T17:47:05;2.94;92.45
64961;SHT31;51487;52.266;10.542;2022-12-01T17:49:31;3.00;92.34
64961;SHT31;51487;52.266;10.542;2022-12-01T17:51:57;3.00;92.50
64961;SHT31;51487;52.266;10.542;2022-12-01T17:54:22;2.92;92.40
64961;SHT31;51487;52.266;10.542;2022-12-01T17:56:48;2.92;92.33